Time;durP1;ratioP1;P1;durP2;ratioP2;P2;SDS_P1;SDS_P2;PMS_P1;PMS_P2;Temp;Humidity;BMP_temperature;BMP_pressure;BME280_temperature;BME280_humidity;BME280_pressure;Samples;Min_cycle;Max_cycle;Signal;HPM_P1;HPM_P2
2021/07/11 00:01:12;;;;;;;23.42;13.55;;;;;;;;;;4979041;28;20096;-60
2021/07/11 00:03:38;;;;;;;20.52;12.35;;;;;;;;;;4976623;28;20038;-60
2021/07/11 00:06:04;;;;;;;22.60;13.65;;;;;;;;;;4975757;28;20050;-60
2021/07/11 00:08:30;;;;;;;20.70;13.20;;;;;;;;;;4974110;28;20493;-60
2021/07/11 00:10:56;;;;;;;19.38;11.98;;;;;;;;;;4980851;28;20026;-60
2021/07/11 00:13:22;;;;;;;24.40;12.70;;;;;;;;;;4977581;28;20042;-60
2021/07/11 00:15:48;;;;;;;20.85;12.10;;;;;;;;;;4979099;28;20281;-60
2021/07/11 00:18:14;;;;;;;20.60;11.85;;;;;;;;;;4971779;28;20066;-60
2021/07/11 00:20:40;;;;;;;20.02;12.32;;;;;;;;;;4973723;28;20039;-60
2021/07/11 00:23:06;;;;;;;23.70;12.23;;;;;;;;;;4976646;28;20080;-60
2021/07/11 00:25:32;;;;;;;20.15;11.75;;;;;;;;;;4979318;28;20030;-60
2021/07/11 00:27:58;;;;;;;19.63;10.88;;;;;;;;;;4975187;28;20018;-60
2021/07/11 00:30:26;;;;;;;21.52;12.32;;;;;;;;;;4970848;28;20118;-60
2021/07/11 00:32:54;;;;;;;18.55;11.13;;;;;;;;;;4974511;28;20031;-60
2021/07/11 00:35:20;;;;;;;22.23;11.65;;;;;;;;;;4973212;28;20034;-60
2021/07/11 00:37:46;;;;;;;21.02;11.63;;;;;;;;;;4969166;28;20027;-60
2021/07/11 00:40:12;;;;;;;19.40;11.13;;;;;;;;;;4981358;28;20194;-60
2021/07/11 00:42:40;;;;;;;21.08;11.82;;;;;;;;;;4979211;28;20087;-60
2021/07/11 00:45:07;;;;;;;19.63;11.48;;;;;;;;;;4972507;28;20022;-60
2021/07/11 00:47:33;;;;;;;22.00;11.55;;;;;;;;;;4973424;28;20023;-60
2021/07/11 00:49:59;;;;;;;23.65;12.80;;;;;;;;;;4974554;28;20096;-60
2021/07/11 00:52:25;;;;;;;20.80;12.18;;;;;;;;;;4980291;28;20022;-60
2021/07/11 00:54:51;;;;;;;22.63;13.13;;;;;;;;;;4972074;28;20049;-60
2021/07/11 00:57:17;;;;;;;20.75;12.27;;;;;;;;;;4966356;28;20030;-60
2021/07/11 00:59:43;;;;;;;19.25;10.82;;;;;;;;;;4973042;28;20045;-60
2021/07/11 01:02:18;;;;;;;19.77;11.23;;;;;;;;;;4983180;28;20030;-60
2021/07/11 01:04:56;;;;;;;20.08;11.40;;;;;;;;;;4982432;28;20127;-60
2021/07/11 01:07:37;;;;;;;18.38;10.90;;;;;;;;;;4972965;28;20508;-60
2021/07/11 01:10:05;;;;;;;18.35;9.63;;;;;;;;;;4980407;28;20022;-60
2021/07/11 01:12:32;;;;;;;19.75;10.75;;;;;;;;;;4967594;28;20175;-60
2021/07/11 01:15:00;;;;;;;16.20;9.23;;;;;;;;;;4983088;28;20041;-60
2021/07/11 01:17:27;;;;;;;15.38;9.20;;;;;;;;;;4980500;28;20504;-60
2021/07/11 01:20:02;;;;;;;19.33;9.60;;;;;;;;;;4974390;28;20045;-60
2021/07/11 01:22:31;;;;;;;17.50;9.52;;;;;;;;;;4978537;28;20436;-60
2021/07/11 01:25:00;;;;;;;16.75;10.20;;;;;;;;;;4972919;28;20114;-60
2021/07/11 01:27:27;;;;;;;18.35;9.95;;;;;;;;;;4974249;28;20386;-60
2021/07/11 01:29:54;;;;;;;19.73;11.25;;;;;;;;;;4980974;28;20034;-60
2021/07/11 01:32:20;;;;;;;23.25;12.90;;;;;;;;;;4977999;28;20244;-60
2021/07/11 01:34:46;;;;;;;27.13;13.93;;;;;;;;;;4977865;28;20497;-60
2021/07/11 01:37:12;;;;;;;25.77;13.60;;;;;;;;;;4970533;28;20041;-59
2021/07/11 01:39:39;;;;;;;25.00;14.93;;;;;;;;;;4973565;28;20049;-60
2021/07/11 01:42:05;;;;;;;24.58;11.38;;;;;;;;;;4974023;28;20066;-60
2021/07/11 01:44:31;;;;;;;34.88;17.02;;;;;;;;;;4982601;28;20061;-60
2021/07/11 01:46:58;;;;;;;28.63;16.17;;;;;;;;;;4978318;28;20027;-60
2021/07/11 01:49:24;;;;;;;36.03;19.08;;;;;;;;;;4970762;28;20031;-60
2021/07/11 01:51:50;;;;;;;36.03;18.42;;;;;;;;;;4976857;28;20058;-60
2021/07/11 01:54:18;;;;;;;35.35;18.45;;;;;;;;;;4978959;28;20495;-60
2021/07/11 01:56:44;;;;;;;36.67;18.33;;;;;;;;;;4977535;28;20100;-60
2021/07/11 01:59:10;;;;;;;36.38;18.45;;;;;;;;;;4978937;28;20027;-60
2021/07/11 02:01:39;;;;;;;31.30;17.75;;;;;;;;;;4981753;28;20153;-60
2021/07/11 02:04:05;;;;;;;34.00;16.98;;;;;;;;;;4977889;28;20058;-60
2021/07/11 02:06:35;;;;;;;32.20;17.25;;;;;;;;;;4981583;28;20179;-60
2021/07/11 02:09:01;;;;;;;28.25;14.45;;;;;;;;;;4989004;28;20037;-60
2021/07/11 02:11:27;;;;;;;24.63;14.45;;;;;;;;;;4980597;28;20041;-60
2021/07/11 02:14:04;;;;;;;25.98;14.80;;;;;;;;;;4977002;28;20034;-60
2021/07/11 02:16:30;;;;;;;23.40;13.38;;;;;;;;;;4978992;28;20493;-60
2021/07/11 02:18:57;;;;;;;26.88;14.52;;;;;;;;;;4979140;28;20053;-60
2021/07/11 02:21:23;;;;;;;25.77;13.80;;;;;;;;;;4976541;28;20170;-59
2021/07/11 02:23:51;;;;;;;27.80;13.13;;;;;;;;;;4970449;28;20034;-60
2021/07/11 02:26:17;;;;;;;26.48;13.65;;;;;;;;;;4982531;28;20026;-60
2021/07/11 02:28:44;;;;;;;25.80;12.73;;;;;;;;;;4978745;28;20443;-59
2021/07/11 02:31:11;;;;;;;24.35;13.20;;;;;;;;;;4976301;28;20031;-60
2021/07/11 02:33:38;;;;;;;26.20;13.85;;;;;;;;;;4969573;28;20036;-60
2021/07/11 02:36:06;;;;;;;29.25;13.90;;;;;;;;;;4978699;28;20034;-60
2021/07/11 02:38:39;;;;;;;27.05;14.27;;;;;;;;;;4979837;28;20026;-60
2021/07/11 02:41:08;;;;;;;28.90;14.27;;;;;;;;;;4976734;28;20482;-60
2021/07/11 02:43:34;;;;;;;30.90;14.80;;;;;;;;;;4978942;28;20115;-60
2021/07/11 02:46:01;;;;;;;27.58;13.57;;;;;;;;;;4976050;28;20038;-59
2021/07/11 02:48:27;;;;;;;26.92;12.60;;;;;;;;;;4980928;28;20486;-60
2021/07/11 02:50:55;;;;;;;26.83;12.25;;;;;;;;;;4975494;28;20035;-60
2021/07/11 02:53:24;;;;;;;27.65;13.20;;;;;;;;;;4973570;28;20514;-60
2021/07/11 02:55:52;;;;;;;28.90;12.57;;;;;;;;;;4976051;28;20508;-60
2021/07/11 02:58:21;;;;;;;27.98;11.75;;;;;;;;;;4972393;28;20803;-60
2021/07/11 03:00:48;;;;;;;26.55;11.93;;;;;;;;;;4975684;28;20499;-60
2021/07/11 03:03:15;;;;;;;28.65;12.63;;;;;;;;;;4974508;28;20500;-60
2021/07/11 03:05:42;;;;;;;28.00;12.13;;;;;;;;;;4978139;28;20086;-60
2021/07/11 03:08:08;;;;;;;26.80;12.27;;;;;;;;;;4971955;28;20033;-60
2021/07/11 03:10:34;;;;;;;26.85;12.27;;;;;;;;;;4983751;28;20033;-60
2021/07/11 03:13:02;;;;;;;24.73;11.40;;;;;;;;;;4979062;28;20045;-60
2021/07/11 03:15:29;;;;;;;27.40;12.15;;;;;;;;;;4974108;28;20080;-60
2021/07/11 03:17:56;;;;;;;26.23;11.35;;;;;;;;;;4973002;28;20081;-60
2021/07/11 03:20:22;;;;;;;28.60;11.77;;;;;;;;;;4970202;28;20053;-60
2021/07/11 03:22:50;;;;;;;24.95;10.77;;;;;;;;;;4971776;28;20106;-60
2021/07/11 03:25:16;;;;;;;25.95;10.88;;;;;;;;;;4976051;28;20034;-60
2021/07/11 03:27:42;;;;;;;30.60;12.55;;;;;;;;;;4979032;28;20037;-60
2021/07/11 03:30:13;;;;;;;28.25;12.10;;;;;;;;;;4981222;28;20084;-60
2021/07/11 03:32:43;;;;;;;27.85;11.95;;;;;;;;;;4969835;28;20039;-60
2021/07/11 03:35:10;;;;;;;26.60;11.82;;;;;;;;;;4981509;28;20065;-60
2021/07/11 03:37:42;;;;;;;27.02;11.55;;;;;;;;;;4977845;28;20027;-60
2021/07/11 03:40:09;;;;;;;28.85;12.27;;;;;;;;;;4975072;28;20104;-60
2021/07/11 03:42:39;;;;;;;33.03;13.95;;;;;;;;;;4977166;28;20042;-60
2021/07/11 03:45:06;;;;;;;27.75;12.95;;;;;;;;;;4976644;28;20034;-60
2021/07/11 03:47:36;;;;;;;31.75;13.07;;;;;;;;;;4972588;28;20026;-60
2021/07/11 03:50:04;;;;;;;39.80;14.10;;;;;;;;;;4975401;28;20105;-60
2021/07/11 03:52:30;;;;;;;33.70;13.45;;;;;;;;;;4971338;28;20146;-61
2021/07/11 03:54:58;;;;;;;35.47;13.00;;;;;;;;;;4966058;28;20390;-60
2021/07/11 03:57:26;;;;;;;30.67;13.30;;;;;;;;;;4971500;28;20504;-60
2021/07/11 03:59:53;;;;;;;32.67;14.23;;;;;;;;;;4974541;28;20065;-60
2021/07/11 04:02:19;;;;;;;34.03;13.75;;;;;;;;;;4974258;28;20114;-60
2021/07/11 04:04:46;;;;;;;33.63;14.52;;;;;;;;;;4976638;28;20409;-60
2021/07/11 04:07:13;;;;;;;33.65;13.05;;;;;;;;;;4969079;28;20035;-60
2021/07/11 04:09:40;;;;;;;30.70;13.48;;;;;;;;;;4975129;28;20520;-59
2021/07/11 04:12:09;;;;;;;33.55;12.93;;;;;;;;;;4978971;28;20168;-60
2021/07/11 04:14:35;;;;;;;31.52;13.38;;;;;;;;;;4974278;28;20398;-60
2021/07/11 04:17:03;;;;;;;28.95;12.48;;;;;;;;;;4971760;28;20031;-60
2021/07/11 04:19:32;;;;;;;27.13;11.93;;;;;;;;;;4976026;28;20037;-60
2021/07/11 04:22:00;;;;;;;31.95;13.65;;;;;;;;;;4975355;28;20046;-60
2021/07/11 04:24:26;;;;;;;29.40;14.20;;;;;;;;;;4978257;28;20106;-60
2021/07/11 04:26:54;;;;;;;30.98;13.27;;;;;;;;;;4978062;28;20138;-60
2021/07/11 04:29:20;;;;;;;31.70;14.43;;;;;;;;;;4966442;28;20027;-60
2021/07/11 04:31:47;;;;;;;31.13;14.10;;;;;;;;;;4980118;28;20520;-60
2021/07/11 04:34:28;;;;;;;29.35;13.35;;;;;;;;;;4971890;28;20530;-60
2021/07/11 04:36:55;;;;;;;33.65;14.80;;;;;;;;;;4977459;28;20096;-60
2021/07/11 04:39:21;;;;;;;30.52;13.88;;;;;;;;;;4984084;28;20030;-60
2021/07/11 04:41:50;;;;;;;32.42;14.98;;;;;;;;;;4977096;28;20038;-60
2021/07/11 04:44:17;;;;;;;35.33;14.50;;;;;;;;;;4980424;28;20022;-60
2021/07/11 04:46:43;;;;;;;32.90;13.93;;;;;;;;;;4976789;28;20494;-60
2021/07/11 04:49:12;;;;;;;30.30;13.30;;;;;;;;;;4982148;28;20026;-61
2021/07/11 04:51:38;;;;;;;32.30;13.38;;;;;;;;;;4974606;28;20669;-60
2021/07/11 04:54:05;;;;;;;32.38;14.25;;;;;;;;;;4981533;28;20035;-60
2021/07/11 04:56:31;;;;;;;33.35;14.55;;;;;;;;;;4976794;28;20114;-60
2021/07/11 04:58:57;;;;;;;33.30;15.23;;;;;;;;;;4970354;28;20026;-60
2021/07/11 05:01:25;;;;;;;31.55;13.95;;;;;;;;;;4975553;28;20443;-60
2021/07/11 05:03:51;;;;;;;27.92;13.63;;;;;;;;;;4977527;28;20501;-60
2021/07/11 05:06:17;;;;;;;30.92;13.95;;;;;;;;;;4970226;28;20049;-61
2021/07/11 05:08:43;;;;;;;32.83;14.98;;;;;;;;;;4968105;28;20043;-61
2021/07/11 05:11:11;;;;;;;30.77;14.55;;;;;;;;;;4974183;28;20492;-61
2021/07/11 05:13:43;;;;;;;33.08;15.05;;;;;;;;;;4974879;28;20124;-60
2021/07/11 05:16:09;;;;;;;30.92;13.15;;;;;;;;;;4976766;28;20089;-61
2021/07/11 05:18:35;;;;;;;29.55;13.48;;;;;;;;;;4970733;28;20081;-61
2021/07/11 05:21:01;;;;;;;30.67;14.07;;;;;;;;;;4973721;28;20409;-61
2021/07/11 05:23:29;;;;;;;31.52;13.73;;;;;;;;;;4979553;28;20032;-61
2021/07/11 05:25:57;;;;;;;27.85;13.27;;;;;;;;;;4972729;28;20038;-61
2021/07/11 05:28:25;;;;;;;26.25;12.45;;;;;;;;;;4975912;28;20085;-61
2021/07/11 05:30:51;;;;;;;29.83;13.50;;;;;;;;;;4976146;28;20118;-60
2021/07/11 05:33:17;;;;;;;30.40;13.38;;;;;;;;;;4971227;28;20138;-60
2021/07/11 05:35:45;;;;;;;27.63;12.63;;;;;;;;;;4967861;28;20062;-60
2021/07/11 05:38:11;;;;;;;28.42;12.65;;;;;;;;;;4975540;28;20057;-60
2021/07/11 05:40:37;;;;;;;25.10;12.30;;;;;;;;;;4976061;28;20122;-61
2021/07/11 05:43:03;;;;;;;28.30;12.90;;;;;;;;;;4982342;28;20678;-60
2021/07/11 05:45:30;;;;;;;28.90;13.50;;;;;;;;;;4984683;28;20177;-60
2021/07/11 05:47:56;;;;;;;29.02;13.50;;;;;;;;;;4979549;28;20022;-60
2021/07/11 05:50:22;;;;;;;31.20;13.82;;;;;;;;;;4975466;28;20737;-62
2021/07/11 05:52:48;;;;;;;29.75;13.35;;;;;;;;;;4978583;28;20322;-61
2021/07/11 05:55:14;;;;;;;29.50;13.70;;;;;;;;;;4980170;28;20560;-61
2021/07/11 05:57:40;;;;;;;26.10;12.98;;;;;;;;;;4971929;28;20027;-61
2021/07/11 06:00:07;;;;;;;30.63;13.80;;;;;;;;;;4977775;28;20061;-61
2021/07/11 06:02:33;;;;;;;26.55;13.95;;;;;;;;;;4973009;28;20031;-61
2021/07/11 06:04:59;;;;;;;24.85;11.93;;;;;;;;;;4970959;28;20058;-60
2021/07/11 06:07:25;;;;;;;27.25;13.63;;;;;;;;;;4974251;28;20038;-61
2021/07/11 06:09:51;;;;;;;25.13;13.00;;;;;;;;;;4975942;28;20031;-61
2021/07/11 06:12:17;;;;;;;25.25;12.60;;;;;;;;;;4975985;28;20472;-60
2021/07/11 06:14:43;;;;;;;28.33;12.63;;;;;;;;;;4971923;28;20102;-60
2021/07/11 06:17:09;;;;;;;23.23;11.40;;;;;;;;;;4972902;28;20031;-61
2021/07/11 06:19:35;;;;;;;23.67;11.32;;;;;;;;;;4977201;28;20061;-61
2021/07/11 06:22:01;;;;;;;24.33;12.23;;;;;;;;;;4975636;28;20078;-61
2021/07/11 06:24:27;;;;;;;24.52;11.07;;;;;;;;;;4977544;28;20115;-61
2021/07/11 06:26:53;;;;;;;23.60;11.48;;;;;;;;;;4974166;28;20505;-60
2021/07/11 06:29:19;;;;;;;20.52;10.48;;;;;;;;;;4979539;28;20025;-60
2021/07/11 06:31:46;;;;;;;26.88;12.48;;;;;;;;;;4971665;28;20512;-60
2021/07/11 06:34:12;;;;;;;24.55;11.07;;;;;;;;;;4970840;28;20034;-60
2021/07/11 06:36:38;;;;;;;20.48;9.68;;;;;;;;;;4973399;28;20039;-61
2021/07/11 06:39:05;;;;;;;21.80;10.20;;;;;;;;;;4974437;28;20101;-61
2021/07/11 06:41:31;;;;;;;21.98;10.45;;;;;;;;;;4971910;28;20083;-61
2021/07/11 06:43:57;;;;;;;21.58;10.80;;;;;;;;;;4981248;28;20026;-60
2021/07/11 06:46:23;;;;;;;22.90;10.77;;;;;;;;;;4975726;28;20039;-60
2021/07/11 06:48:50;;;;;;;22.35;9.48;;;;;;;;;;4977063;28;20074;-60
2021/07/11 06:51:16;;;;;;;21.05;10.45;;;;;;;;;;4970559;28;20038;-60
2021/07/11 06:53:42;;;;;;;24.30;11.48;;;;;;;;;;4969313;28;20033;-60
2021/07/11 06:56:08;;;;;;;23.65;10.93;;;;;;;;;;4963802;28;20027;-60
2021/07/11 06:58:34;;;;;;;23.55;10.85;;;;;;;;;;4972439;28;20034;-60
2021/07/11 07:01:00;;;;;;;21.08;10.68;;;;;;;;;;4966287;28;20064;-60
2021/07/11 07:03:28;;;;;;;21.33;11.15;;;;;;;;;;4971224;28;20493;-60
2021/07/11 07:05:54;;;;;;;20.55;10.40;;;;;;;;;;4970370;28;20138;-60
2021/07/11 07:08:25;;;;;;;18.05;9.73;;;;;;;;;;4976584;28;20034;-60
2021/07/11 07:10:51;;;;;;;20.42;10.80;;;;;;;;;;4980496;28;20611;-60
2021/07/11 07:13:21;;;;;;;20.20;9.88;;;;;;;;;;4975162;28;20038;-60
2021/07/11 07:15:47;;;;;;;;;;;;;;;;;;4978663;28;20024;-60
2021/07/11 07:18:13;;;;;;;17.33;8.63;;;;;;;;;;4973411;28;20479;-60
2021/07/11 07:20:39;;;;;;;18.23;8.90;;;;;;;;;;4972066;28;20061;-60
2021/07/11 07:23:05;;;;;;;16.42;8.95;;;;;;;;;;4973588;28;20842;-60
2021/07/11 07:25:31;;;;;;;17.35;8.90;;;;;;;;;;4980440;28;20034;-60
2021/07/11 07:27:59;;;;;;;17.30;9.55;;;;;;;;;;4973998;28;20101;-60
2021/07/11 07:30:25;;;;;;;16.33;8.35;;;;;;;;;;4980631;28;20089;-60
2021/07/11 07:32:52;;;;;;;20.80;9.57;;;;;;;;;;4976364;28;20030;-60
2021/07/11 07:35:18;;;;;;;16.08;8.13;;;;;;;;;;4977560;28;20451;-60
2021/07/11 07:37:46;;;;;;;16.38;8.90;;;;;;;;;;4978289;28;20584;-60
2021/07/11 07:40:15;;;;;;;18.65;9.80;;;;;;;;;;4973349;28;20033;-60
2021/07/11 07:42:43;;;;;;;18.35;10.07;;;;;;;;;;4970159;28;20034;-61
2021/07/11 07:45:13;;;;;;;13.98;6.22;;;;;;;;;;4977767;28;20057;-60
2021/07/11 07:47:40;;;;;;;17.13;8.02;;;;;;;;;;4980491;28;20034;-60
2021/07/11 07:50:06;;;;;;;14.57;8.00;;;;;;;;;;4976961;28;20034;-60
2021/07/11 07:52:33;;;;;;;15.80;8.70;;;;;;;;;;4977826;28;20076;-61
2021/07/11 07:55:01;;;;;;;17.15;9.93;;;;;;;;;;4973026;28;20041;-61
2021/07/11 07:57:27;;;;;;;16.10;8.68;;;;;;;;;;4972650;28;20040;-60
2021/07/11 07:59:55;;;;;;;16.10;8.07;;;;;;;;;;4970158;28;20123;-60
2021/07/11 08:02:21;;;;;;;16.50;8.50;;;;;;;;;;4970792;28;20061;-60
2021/07/11 08:04:47;;;;;;;15.57;8.02;;;;;;;;;;4969378;28;20490;-61
2021/07/11 08:07:13;;;;;;;14.60;8.13;;;;;;;;;;4971843;28;20035;-61
2021/07/11 08:09:39;;;;;;;18.50;8.85;;;;;;;;;;4975919;28;20041;-61
2021/07/11 08:12:06;;;;;;;17.45;9.57;;;;;;;;;;4974082;28;20095;-61
2021/07/11 08:14:32;;;;;;;16.42;9.30;;;;;;;;;;4978691;28;20058;-61
2021/07/11 08:16:58;;;;;;;16.65;8.82;;;;;;;;;;4970840;28;20115;-61
2021/07/11 08:19:24;;;;;;;16.95;8.43;;;;;;;;;;4972679;28;20041;-61
2021/07/11 08:21:53;;;;;;;15.57;8.18;;;;;;;;;;4973825;28;20045;-61
2021/07/11 08:24:20;;;;;;;15.87;7.73;;;;;;;;;;4971825;28;20027;-61
2021/07/11 08:26:46;;;;;;;14.07;7.55;;;;;;;;;;4970980;28;20127;-61
2021/07/11 08:29:12;;;;;;;14.00;6.88;;;;;;;;;;4977809;28;20027;-61
2021/07/11 08:31:38;;;;;;;12.82;7.45;;;;;;;;;;4975174;28;20132;-61
2021/07/11 08:34:05;;;;;;;13.30;7.63;;;;;;;;;;4972481;28;20106;-61
2021/07/11 08:36:31;;;;;;;12.35;7.30;;;;;;;;;;4973280;28;20026;-61
2021/07/11 08:38:57;;;;;;;15.32;7.38;;;;;;;;;;4978377;28;20022;-61
2021/07/11 08:41:24;;;;;;;12.68;7.18;;;;;;;;;;4976004;28;20048;-61
2021/07/11 08:43:51;;;;;;;13.77;7.55;;;;;;;;;;4978085;28;20023;-61
2021/07/11 08:46:17;;;;;;;13.02;7.20;;;;;;;;;;4979944;28;20246;-61
2021/07/11 08:48:43;;;;;;;13.73;8.23;;;;;;;;;;4975565;28;20588;-61
2021/07/11 08:51:09;;;;;;;13.05;6.82;;;;;;;;;;4972527;28;20537;-61
2021/07/11 08:53:37;;;;;;;13.98;7.75;;;;;;;;;;4977496;28;20494;-61
2021/07/11 08:56:05;;;;;;;14.27;7.78;;;;;;;;;;4980711;28;20496;-61
2021/07/11 08:58:31;;;;;;;13.38;7.57;;;;;;;;;;4977304;28;20033;-61
2021/07/11 09:00:57;;;;;;;11.50;6.80;;;;;;;;;;4977743;28;20058;-61
2021/07/11 09:03:23;;;;;;;13.73;6.32;;;;;;;;;;4974508;28;20032;-61
2021/07/11 09:05:53;;;;;;;14.77;7.45;;;;;;;;;;4975133;28;20415;-60
2021/07/11 09:08:23;;;;;;;13.20;7.05;;;;;;;;;;4976523;28;20058;-60
2021/07/11 09:10:56;;;;;;;12.47;6.10;;;;;;;;;;4979314;28;20058;-61
2021/07/11 09:13:24;;;;;;;15.23;7.93;;;;;;;;;;4974366;28;20259;-61
2021/07/11 09:15:51;;;;;;;16.30;9.10;;;;;;;;;;4978392;28;20078;-61
2021/07/11 09:18:23;;;;;;;17.65;9.38;;;;;;;;;;4981362;28;20477;-61
2021/07/11 09:21:11;;;;;;;14.68;8.00;;;;;;;;;;4973925;28;20100;-61
2021/07/11 09:23:38;;;;;;;18.63;9.48;;;;;;;;;;4976734;28;20030;-60
2021/07/11 09:26:06;;;;;;;17.52;9.48;;;;;;;;;;4974154;28;20034;-61
2021/07/11 09:28:32;;;;;;;18.58;10.38;;;;;;;;;;4975920;28;20042;-61
2021/07/11 09:31:01;;;;;;;17.90;10.35;;;;;;;;;;4979294;28;20030;-61
2021/07/11 09:33:27;;;;;;;14.88;9.27;;;;;;;;;;4975471;28;20053;-61
2021/07/11 09:36:03;;;;;;;15.88;8.35;;;;;;;;;;4970613;28;20473;-61
2021/07/11 09:38:29;;;;;;;16.88;9.15;;;;;;;;;;4977060;28;20039;-61
2021/07/11 09:40:55;;;;;;;17.30;8.77;;;;;;;;;;4977323;28;20062;-61
2021/07/11 09:43:21;;;;;;;16.25;8.27;;;;;;;;;;4973009;28;20493;-60
2021/07/11 09:45:47;;;;;;;16.67;9.32;;;;;;;;;;4969180;28;20026;-60
2021/07/11 09:48:14;;;;;;;15.27;8.98;;;;;;;;;;4969463;28;20018;-61
2021/07/11 09:50:41;;;;;;;17.55;9.00;;;;;;;;;;4967582;28;20034;-61
2021/07/11 09:53:07;;;;;;;15.15;8.98;;;;;;;;;;4969547;28;20038;-61
2021/07/11 09:55:34;;;;;;;14.93;8.07;;;;;;;;;;4969142;28;20379;-62
2021/07/11 09:58:01;;;;;;;15.18;9.05;;;;;;;;;;4972587;28;20117;-61
2021/07/11 10:00:32;;;;;;;16.25;8.40;;;;;;;;;;4969554;28;20035;-61
2021/07/11 10:02:59;;;;;;;16.13;9.88;;;;;;;;;;4974171;28;20295;-61
2021/07/11 10:05:26;;;;;;;17.05;8.48;;;;;;;;;;4974756;28;20060;-61
2021/07/11 10:07:52;;;;;;;17.83;9.57;;;;;;;;;;4970036;28;20039;-61
2021/07/11 10:10:20;;;;;;;17.80;10.10;;;;;;;;;;4971666;28;20023;-61
2021/07/11 10:12:47;;;;;;;19.45;10.80;;;;;;;;;;4975338;28;20535;-61
2021/07/11 10:15:15;;;;;;;20.27;11.85;;;;;;;;;;4969624;28;20039;-61
2021/07/11 10:17:48;;;;;;;20.90;12.63;;;;;;;;;;4970353;28;20481;-61
2021/07/11 10:20:16;;;;;;;21.52;12.60;;;;;;;;;;4974357;28;20039;-61
2021/07/11 10:22:45;;;;;;;26.42;16.02;;;;;;;;;;4962745;28;20054;-60
2021/07/11 10:25:13;;;;;;;22.00;13.18;;;;;;;;;;4975912;28;20038;-61
2021/07/11 10:27:40;;;;;;;23.02;12.05;;;;;;;;;;4978851;28;20508;-62
2021/07/11 10:30:06;;;;;;;20.52;12.52;;;;;;;;;;4979024;28;20068;-61
2021/07/11 10:32:33;;;;;;;19.45;11.35;;;;;;;;;;4972240;28;20057;-61
2021/07/11 10:35:09;;;;;;;18.80;11.75;;;;;;;;;;4977768;28;20231;-61
2021/07/11 10:37:50;;;;;;;17.83;10.25;;;26.20;99.90;;;;;;4970716;28;20043;-61
2021/07/11 10:40:23;;;;;;;18.20;10.82;;;26.70;99.90;;;;;;4978595;28;20030;-61
2021/07/11 10:42:50;;;;;;;18.15;11.00;;;27.30;99.90;;;;;;4972457;28;20133;-61
2021/07/11 10:45:17;;;;;;;19.67;11.57;;;26.80;99.90;;;;;;4972664;28;20097;-61
2021/07/11 10:47:43;;;;;;;12.65;8.18;;;27.30;99.90;;;;;;4973042;28;20038;-61
2021/07/11 10:50:22;;;;;;;17.45;11.00;;;;;;;;;;4968778;28;20448;-61
2021/07/11 10:52:48;;;;;;;22.58;12.35;;;26.00;99.90;;;;;;4968045;28;20026;-61
2021/07/11 10:55:14;;;;;;;19.60;11.82;;;26.50;99.90;;;;;;4975719;28;20029;-61
2021/07/11 10:57:40;;;;;;;19.92;12.65;;;27.10;99.90;;;;;;4976363;28;20041;-62
2021/07/11 11:00:12;;;;;;;21.17;11.73;;;27.90;99.90;;;;;;4978096;28;20026;-61
2021/07/11 11:02:38;;;;;;;20.00;12.13;;;28.30;99.00;;;;;;4976157;28;20042;-61
2021/07/11 11:05:12;;;;;;;22.33;12.80;;;27.60;99.90;;;;;;4972571;28;20520;-61
2021/07/11 11:07:41;;;;;;;22.92;13.55;;;27.00;99.80;;;;;;4969302;28;20035;-61
2021/07/11 11:10:36;;;;;;;26.45;13.23;;;26.00;99.90;;;;;;4967724;28;20027;-61
2021/07/11 11:13:05;;;;;;;23.23;13.23;;;25.50;99.90;;;;;;4972868;28;20512;-61
2021/07/11 11:15:45;;;;;;;26.45;14.27;;;24.20;99.90;;;;;;4978626;28;20500;-61
2021/07/11 11:18:13;;;;;;;25.50;14.80;;;23.70;99.90;;;;;;4965167;28;20030;-61
2021/07/11 11:20:40;;;;;;;25.20;13.68;;;23.60;99.90;;;;;;4976433;28;20038;-60
2021/07/11 11:23:10;;;;;;;25.30;14.45;;;23.50;99.90;;;;;;4979106;28;20096;-60
2021/07/11 11:25:36;;;;;;;28.23;14.18;;;23.20;99.90;;;;;;4967919;28;20057;-60
2021/07/11 11:28:01;;;;;;;28.27;14.82;;;23.20;99.90;;;;;;4970689;28;20134;-60
2021/07/11 11:30:27;;;;;;;21.98;11.35;;;23.40;99.90;;;;;;4976001;28;20037;-60
2021/07/11 11:33:00;;;;;;;20.88;10.75;;;23.00;99.90;;;;;;4974665;28;20129;-60
2021/07/11 11:35:35;;;;;;;19.58;10.57;;;23.60;99.90;;;;;;4974973;28;20354;-60
2021/07/11 11:38:03;;;;;;;21.00;10.13;;;22.80;99.90;;;;;;4970771;28;20023;-60
2021/07/11 11:40:34;;;;;;;21.38;11.77;;;23.20;99.90;;;;;;4970783;28;20030;-60
2021/07/11 11:43:03;;;;;;;21.30;10.90;;;23.70;99.90;;;;;;4969748;28;20574;-60
2021/07/11 11:45:30;;;;;;;19.33;9.90;;;23.70;99.90;;;;;;4978139;28;20034;-60
2021/07/11 11:48:12;;;;;;;21.38;12.18;;;23.90;99.90;;;;;;4968774;28;20468;-60
2021/07/11 11:50:41;;;;;;;20.73;11.73;;;23.60;99.90;;;;;;4972872;28;20034;-60
2021/07/11 11:53:12;;;;;;;21.33;10.45;;;23.50;99.90;;;;;;4974514;28;20033;-61
2021/07/11 11:55:45;;;;;;;20.25;10.38;;;23.80;99.90;;;;;;4973969;28;20052;-61
2021/07/11 11:58:10;;;;;;;21.65;11.50;;;24.00;99.90;;;;;;4970973;28;20030;-61
2021/07/11 12:00:37;;;;;;;17.80;10.27;;;24.40;99.90;;;;;;4969154;28;20033;-60
2021/07/11 12:03:07;;;;;;;18.95;11.43;;;24.00;99.90;;;;;;4967138;28;20043;-60
2021/07/11 12:05:35;;;;;;;20.05;11.55;;;24.20;99.90;;;;;;4969278;28;20517;-60
2021/07/11 12:08:03;;;;;;;21.42;10.25;;;24.00;99.90;;;;;;4970498;28;20560;-60
2021/07/11 12:10:29;;;;;;;22.88;12.30;;;23.00;99.90;;;;;;4974058;28;20081;-60
2021/07/11 12:13:00;;;;;;;24.80;14.32;;;22.90;99.90;;;;;;4974563;28;20592;-60
2021/07/11 12:15:38;;;;;;;25.85;13.55;;;22.50;99.90;;;;;;4971536;28;20027;-61
2021/07/11 12:18:07;;;;;;;29.65;15.50;;;22.70;99.90;;;;;;4966873;28;20103;-60
2021/07/11 12:20:37;;;;;;;27.38;13.93;;;21.80;99.90;;;;;;4972409;28;20065;-60
2021/07/11 12:23:08;;;;;;;28.70;14.53;;;21.90;99.90;;;;;;4968376;28;20039;-60
2021/07/11 12:25:37;;;;;;;23.90;12.90;;;21.90;99.90;;;;;;4968572;28;20077;-60
2021/07/11 12:28:03;;;;;;;25.83;15.07;;;22.10;99.90;;;;;;4967967;28;20062;-60
2021/07/11 12:30:43;;;;;;;26.83;14.43;;;22.10;99.90;;;;;;4970059;28;20034;-60
2021/07/11 12:33:10;;;;;;;25.08;12.68;;;22.40;99.90;;;;;;4967992;28;20490;-61
2021/07/11 12:35:47;;;;;;;21.23;10.68;;;22.70;99.90;;;;;;4968478;28;20031;-60
2021/07/11 12:38:13;;;;;;;23.77;13.55;;;22.90;99.90;;;;;;4968285;28;20046;-60
2021/07/11 12:40:40;;;;;;;22.65;13.52;;;23.20;99.90;;;;;;4966217;28;20030;-61
2021/07/11 12:43:29;;;;;;;21.58;12.55;;;23.40;99.90;;;;;;4964775;28;20031;-61
2021/07/11 12:46:07;;;;;;;19.63;11.18;;;24.10;99.90;;;;;;4971562;28;20560;-60
2021/07/11 12:48:42;;;;;;;18.10;10.45;;;24.20;99.90;;;;;;4975116;28;20109;-60
2021/07/11 12:51:17;;;;;;;17.23;10.25;;;24.40;99.90;;;;;;4965099;28;20114;-60
2021/07/11 12:54:06;;;;;;;17.60;9.77;;;23.80;99.90;;;;;;4968689;28;20034;-61
2021/07/11 12:56:31;;;;;;;17.63;9.27;;;24.10;99.90;;;;;;4970029;28;20557;-60
2021/07/11 12:59:07;;;;;;;15.20;7.97;;;24.10;99.90;;;;;;4970408;28;20041;-61
2021/07/11 13:01:33;;;;;;;14.90;9.20;;;24.50;99.90;;;;;;4971092;28;20075;-61
2021/07/11 13:04:04;;;;;;;14.93;8.70;;;24.60;99.90;;;;;;4969551;28;20034;-60
2021/07/11 13:06:36;;;;;;;14.00;7.95;;;25.10;99.90;;;;;;4970174;28;20284;-60
2021/07/11 13:09:07;;;;;;;18.00;10.13;;;24.80;99.90;;;;;;4970458;28;20503;-60
2021/07/11 13:11:33;;;;;;;17.25;9.35;;;24.30;99.90;;;;;;4971969;28;20030;-61
2021/07/11 13:13:59;;;;;;;15.82;9.93;;;24.20;99.90;;;;;;4970300;28;20630;-60
2021/07/11 13:16:25;;;;;;;14.43;8.27;;;24.20;99.90;;;;;;4972845;28;20042;-61
2021/07/11 13:18:50;;;;;;;16.73;10.45;;;24.60;99.90;;;;;;4968527;28;20029;-60
2021/07/11 13:21:17;;;;;;;16.48;9.48;;;24.80;99.90;;;;;;4972055;28;20042;-61
2021/07/11 13:23:43;;;;;;;19.23;10.10;;;24.40;99.90;;;;;;4978443;28;20715;-60
2021/07/11 13:26:10;;;;;;;17.13;10.90;;;24.70;99.90;;;;;;4977817;28;20715;-60
2021/07/11 13:28:35;;;;;;;17.58;10.88;;;24.70;99.90;;;;;;4978501;28;20041;-61
2021/07/11 13:31:01;;;;;;;17.38;9.77;;;23.70;99.90;;;;;;4976992;28;20034;-60
2021/07/11 13:33:27;;;;;;;15.38;9.82;;;23.80;99.90;;;;;;4978034;28;20049;-60
2021/07/11 13:35:53;;;;;;;16.05;9.40;;;24.20;99.90;;;;;;4979962;28;20117;-60
2021/07/11 13:38:19;;;;;;;17.58;9.80;;;24.30;99.90;;;;;;4958002;28;20041;-60
2021/07/11 13:40:46;;;;;;;15.07;8.55;;;24.10;99.90;;;;;;4976894;28;20113;-60
2021/07/11 13:43:12;;;;;;;13.25;8.18;;;24.00;99.90;;;;;;4977808;28;20030;-60
2021/07/11 13:45:40;;;;;;;17.05;9.48;;;23.70;99.90;;;;;;4978019;28;20045;-60
2021/07/11 13:48:07;;;;;;;17.63;9.32;;;24.00;99.90;;;;;;4975546;28;20642;-60
2021/07/11 13:50:33;;;;;;;14.10;8.38;;;24.00;99.90;;;;;;4975939;28;20114;-60
2021/07/11 13:52:59;;;;;;;15.93;8.65;;;24.20;99.90;;;;;;4977024;28;20034;-61
2021/07/11 13:55:24;;;;;;;15.82;8.70;;;24.30;99.90;;;;;;4976092;28;20034;-61